Angleton, Texas
Current Conditions -  °F | °C
As of 5:35 PM on Saturday 22 Nov 2014 (Local Time) from KLBX Reporting Station
Overcast Overcast  
Wind Chill: 69°   Ceiling: 1300
Heat Index: 69°   Visibility: 10mi
Dew Point: 66°   Wind: 12mph
Humidity: 90%   Direction: 160°SSE
Pressure: 29.81"   Gusts: NA
Location:  29.16°N, 95.43°W
Report Text: KLBX 222335Z AUTO 16010KT 10SM BKN013 BKN020 OVC055 21/19 A2981 RMK AO2 LTG DSNT N AND E RAB05E16 P0000 T02060189
Loading
Personal Weather Stations






























Interactive Weather Map New forecast layout! Learn more

10-Day Weather Forecast

Advertisements
Track Severe Weather on mobile